createdAt,value
2022-08-09T00:00:04.146Z,16.42
2022-08-09T00:02:34.223Z,16.33
2022-08-09T00:06:15.413Z,16.31
2022-08-09T00:07:48.717Z,16.29
2022-08-09T00:10:17.902Z,16.24
2022-08-09T00:12:52.574Z,16.24
2022-08-09T00:15:35.479Z,16.22
2022-08-09T00:18:11.818Z,16.17
2022-08-09T00:20:42.445Z,16.18
2022-08-09T00:23:58.311Z,16.15
2022-08-09T00:26:08.009Z,16.12
2022-08-09T00:28:35.376Z,16.09
2022-08-09T00:31:30.587Z,16.08
2022-08-09T00:33:52.640Z,16.04
2022-08-09T00:36:20.612Z,16.02
2022-08-09T00:38:50.865Z,16.00
2022-08-09T00:44:09.846Z,15.96
2022-08-09T00:44:16.133Z,15.96
2022-08-09T00:46:57.457Z,15.91
2022-08-09T00:49:33.195Z,15.87
2022-08-09T00:52:05.218Z,15.87
2022-08-09T00:54:35.984Z,15.84
2022-08-09T00:57:10.302Z,15.84
2022-08-09T00:59:47.147Z,15.82
2022-08-09T01:02:23.532Z,15.78
2022-08-09T01:05:03.575Z,15.76
2022-08-09T01:08:00.087Z,15.75
2022-08-09T01:10:53.456Z,15.72
2022-08-09T01:13:31.083Z,15.68
2022-08-09T01:16:12.952Z,15.68
2022-08-09T01:18:47.608Z,15.66
2022-08-09T01:21:41.102Z,15.60
2022-08-09T01:24:30.768Z,15.55
2022-08-09T01:27:03.655Z,15.52
2022-08-09T01:29:55.107Z,15.51
2022-08-09T01:32:31.851Z,15.47
2022-08-09T01:35:06.984Z,15.47
2022-08-09T01:38:09.707Z,15.46
2022-08-09T01:40:35.918Z,15.46
2022-08-09T01:43:05.322Z,15.44
2022-08-09T01:45:35.572Z,15.42
2022-08-09T01:48:16.717Z,15.38
2022-08-09T01:50:55.351Z,15.31
2022-08-09T01:53:29.023Z,15.29
2022-08-09T01:56:09.988Z,15.27
2022-08-09T01:58:38.915Z,15.25
2022-08-09T02:01:07.886Z,15.22
2022-08-09T02:03:36.894Z,15.20
2022-08-09T02:06:06.498Z,15.21
2022-08-09T02:08:57.640Z,15.16
2022-08-09T02:11:42.508Z,15.12
2022-08-09T02:14:15.131Z,15.13
2022-08-09T02:16:59.729Z,15.09
2022-08-09T02:19:43.353Z,15.06
2022-08-09T02:22:47.551Z,15.07
2022-08-09T02:25:21.851Z,15.03
2022-08-09T02:28:00.458Z,15.04
2022-08-09T02:30:37.456Z,15.03
2022-08-09T02:33:07.809Z,14.98
2022-08-09T02:36:01.943Z,14.94
2022-08-09T02:38:35.494Z,14.94
2022-08-09T02:41:13.688Z,14.91
2022-08-09T02:43:54.625Z,14.85
2022-08-09T02:46:27.555Z,14.83
2022-08-09T02:48:59.039Z,14.82
2022-08-09T02:51:28.435Z,14.83
2022-08-09T02:54:05.154Z,14.81
2022-08-09T02:56:34.914Z,14.78
2022-08-09T02:59:07.902Z,14.76
2022-08-09T03:01:42.567Z,14.75
2022-08-09T03:04:19.616Z,14.74
2022-08-09T03:06:48.854Z,14.70
2022-08-09T03:09:17.797Z,14.73
2022-08-09T03:12:10.795Z,14.70
2022-08-09T03:14:33.344Z,14.66
2022-08-09T03:17:02.096Z,14.66
2022-08-09T03:19:52.675Z,14.60
2022-08-09T03:22:25.621Z,14.60
2022-08-09T03:25:06.594Z,14.56
2022-08-09T03:27:50.650Z,14.54
2022-08-09T03:30:29.522Z,14.52
2022-08-09T03:33:17.361Z,14.50
2022-08-09T03:36:15.619Z,14.49
2022-08-09T03:38:37.267Z,14.46
2022-08-09T03:41:09.208Z,14.45
2022-08-09T03:43:36.552Z,14.45
2022-08-09T03:46:20.641Z,14.43
2022-08-09T03:48:59.147Z,14.42
2022-08-09T03:51:57.123Z,14.41
2022-08-09T03:54:19.519Z,14.37
2022-08-09T03:56:58.198Z,14.37
2022-08-09T03:59:42.849Z,14.35
2022-08-09T04:02:10.754Z,14.33
2022-08-09T04:04:38.994Z,14.32
2022-08-09T04:07:06.569Z,14.29
2022-08-09T04:09:41.722Z,14.28
2022-08-09T04:12:30.811Z,14.26
2022-08-09T04:15:01.873Z,14.23
2022-08-09T04:17:39.290Z,14.21
2022-08-09T04:20:09.064Z,14.19
2022-08-09T04:22:41.221Z,14.18
2022-08-09T04:25:11.459Z,14.17
2022-08-09T04:27:41.499Z,14.13
2022-08-09T04:30:14.100Z,14.16
2022-08-09T04:32:46.717Z,14.12
2022-08-09T04:35:14.336Z,14.12
2022-08-09T04:37:46.412Z,14.14
2022-08-09T04:40:19.024Z,14.16
2022-08-09T04:42:48.426Z,14.19
2022-08-09T04:45:20.434Z,14.18
2022-08-09T04:48:01.025Z,14.20
2022-08-09T04:50:31.924Z,14.23
2022-08-09T04:53:12.995Z,14.25
2022-08-09T04:55:59.090Z,14.25
2022-08-09T04:58:28.024Z,14.24
2022-08-09T05:00:56.800Z,14.25
2022-08-09T05:03:40.412Z,14.30
2022-08-09T05:06:25.743Z,14.32
2022-08-09T05:09:00.224Z,14.37
2022-08-09T05:11:32.077Z,14.39
2022-08-09T05:14:06.458Z,14.39
2022-08-09T05:16:58.260Z,14.39
2022-08-09T05:19:25.661Z,14.48
2022-08-09T05:21:55.217Z,14.51
2022-08-09T05:24:24.175Z,14.54
2022-08-09T05:26:51.625Z,14.60
2022-08-09T05:29:22.178Z,14.64
2022-08-09T05:31:56.999Z,14.71
2022-08-09T05:34:30.913Z,14.76
2022-08-09T05:37:06.250Z,14.81
2022-08-09T05:39:42.610Z,14.83
2022-08-09T05:42:17.707Z,14.91
2022-08-09T05:44:50.830Z,15.00
2022-08-09T05:47:22.866Z,15.26
2022-08-09T05:50:26.883Z,15.36
2022-08-09T05:52:39.022Z,15.41
2022-08-09T05:55:08.520Z,15.44
2022-08-09T05:57:51.240Z,15.49
2022-08-09T06:00:23.407Z,15.60
2022-08-09T06:02:54.249Z,15.76
2022-08-09T06:05:30.858Z,15.86
2022-08-09T06:08:08.986Z,15.98
2022-08-09T06:10:38.650Z,16.10
2022-08-09T06:13:18.993Z,16.16
2022-08-09T06:15:51.490Z,16.32
2022-08-09T06:18:19.572Z,16.40
2022-08-09T06:20:54.160Z,16.53
2022-08-09T06:23:24.115Z,16.64
2022-08-09T06:26:10.914Z,16.77
2022-08-09T06:28:37.675Z,16.93
2022-08-09T06:31:05.149Z,17.07
2022-08-09T06:33:40.637Z,17.15
2022-08-09T06:36:09.382Z,17.30
2022-08-09T06:38:38.869Z,17.34
2022-08-09T06:41:19.173Z,17.35
2022-08-09T06:43:48.464Z,17.48
2022-08-09T06:46:40.324Z,17.68
2022-08-09T06:49:02.620Z,17.99
2022-08-09T06:51:29.281Z,18.25
2022-08-09T06:54:00.846Z,18.64
2022-08-09T06:56:30.936Z,18.90
2022-08-09T07:00:55.528Z,18.98
2022-08-09T07:01:54.423Z,18.80
2022-08-09T07:04:26.927Z,18.66
2022-08-09T07:07:00.397Z,18.69
2022-08-09T07:09:55.662Z,18.75
2022-08-09T07:12:18.301Z,18.79
2022-08-09T07:14:50.785Z,18.94
2022-08-09T07:17:17.750Z,19.10
2022-08-09T07:19:44.481Z,19.29
2022-08-09T07:22:15.199Z,19.44
2022-08-09T07:24:49.626Z,19.61
2022-08-09T07:27:26.495Z,19.75
2022-08-09T07:30:02.209Z,19.92
2022-08-09T07:32:32.099Z,20.04
2022-08-09T07:35:08.003Z,20.14
2022-08-09T07:37:43.360Z,20.19
2022-08-09T07:40:18.273Z,20.35
2022-08-09T07:43:00.189Z,20.59
2022-08-09T07:45:39.309Z,20.77
2022-08-09T07:48:25.677Z,20.80
2022-08-09T07:51:03.228Z,21.00
2022-08-09T07:54:04.916Z,21.18
2022-08-09T07:56:31.970Z,21.24
2022-08-09T07:58:59.396Z,21.41
2022-08-09T08:01:32.914Z,21.55
2022-08-09T08:03:59.941Z,21.75
2022-08-09T08:06:32.035Z,21.74
2022-08-09T08:09:04.888Z,21.84
2022-08-09T08:12:24.399Z,21.93
2022-08-09T08:14:21.090Z,22.12
2022-08-09T08:17:00.396Z,22.25
2022-08-09T08:19:34.123Z,22.32
2022-08-09T08:22:01.844Z,22.30
2022-08-09T08:24:35.390Z,22.46
2022-08-09T08:27:17.008Z,22.66
2022-08-09T08:29:50.126Z,22.51
2022-08-09T08:32:28.790Z,22.74
2022-08-09T08:34:58.782Z,22.93
2022-08-09T08:37:40.860Z,23.10
2022-08-09T08:40:09.630Z,23.03
2022-08-09T08:42:38.072Z,23.08
2022-08-09T08:45:13.248Z,23.22
2022-08-09T08:47:42.632Z,23.28
2022-08-09T08:50:14.670Z,23.37
2022-08-09T08:52:58.020Z,23.39
2022-08-09T08:55:26.903Z,23.45
2022-08-09T08:57:57.227Z,23.53
2022-08-09T09:00:30.459Z,23.52
2022-08-09T09:03:11.256Z,23.46
2022-08-09T09:05:59.020Z,23.66
2022-08-09T09:08:30.732Z,23.89
2022-08-09T09:11:03.282Z,24.07
2022-08-09T09:13:55.158Z,24.21
2022-08-09T09:16:35.667Z,24.35
2022-08-09T09:21:58.097Z,24.54
2022-08-09T09:24:34.654Z,24.64
2022-08-09T09:27:03.605Z,24.80
2022-08-09T09:29:46.059Z,24.90
2022-08-09T09:32:35.055Z,25.02
2022-08-09T09:35:10.805Z,25.00
2022-08-09T09:37:45.595Z,24.94
2022-08-09T09:40:13.094Z,25.01
2022-08-09T09:42:45.975Z,25.14
2022-08-09T09:45:14.487Z,25.24
2022-08-09T09:47:56.496Z,25.45
2022-08-09T09:50:49.622Z,25.44
2022-08-09T09:53:21.259Z,25.39
2022-08-09T09:56:20.055Z,25.43
2022-08-09T09:59:00.186Z,25.67
2022-08-09T10:01:31.036Z,25.93
2022-08-09T10:04:16.337Z,25.98
2022-08-09T10:06:53.824Z,25.98
2022-08-09T10:09:23.818Z,26.07
2022-08-09T10:12:07.772Z,26.09
2022-08-09T10:14:40.174Z,26.23
2022-08-09T10:17:51.098Z,26.30
2022-08-09T10:20:10.929Z,26.34
2022-08-09T10:22:42.121Z,26.55
2022-08-09T10:25:12.240Z,26.65
2022-08-09T10:27:57.149Z,26.79
2022-08-09T10:34:04.583Z,27.00
2022-08-09T10:36:04.478Z,27.13
2022-08-09T10:38:54.518Z,27.10
2022-08-09T10:41:20.606Z,27.08
2022-08-09T10:43:59.929Z,27.17
2022-08-09T10:46:57.154Z,27.27
2022-08-09T10:49:57.309Z,27.44
2022-08-09T10:52:37.980Z,27.50
2022-08-09T10:55:27.626Z,27.44
2022-08-09T10:57:59.865Z,27.23
2022-08-09T11:00:29.716Z,27.27
2022-08-09T11:03:15.241Z,27.58
2022-08-09T11:06:15.665Z,27.64
2022-08-09T11:08:53.093Z,27.78
2022-08-09T11:11:23.008Z,27.76
2022-08-09T11:14:28.025Z,27.70
2022-08-09T11:16:56.214Z,27.80
2022-08-09T11:20:11.185Z,27.70
2022-08-09T11:22:56.595Z,27.79
2022-08-09T11:25:47.259Z,27.70
2022-08-09T11:28:34.563Z,27.77
2022-08-09T11:31:49.949Z,27.69
2022-08-09T11:34:33.765Z,27.71
2022-08-09T11:37:03.653Z,27.71
2022-08-09T11:40:01.693Z,27.87
2022-08-09T11:42:41.320Z,28.19
2022-08-09T11:45:26.301Z,28.19
2022-08-09T11:48:19.445Z,28.22
2022-08-09T11:52:53.681Z,28.23
2022-08-09T11:54:00.008Z,28.42
2022-08-09T11:56:42.785Z,28.56
2022-08-09T11:59:30.585Z,28.58
2022-08-09T12:02:16.155Z,28.51
2022-08-09T12:04:45.685Z,28.32
2022-08-09T12:07:14.179Z,28.31
2022-08-09T12:09:44.200Z,28.49
2022-08-09T12:12:28.495Z,28.59
2022-08-09T12:15:08.065Z,28.62
2022-08-09T12:17:42.822Z,28.91
2022-08-09T12:20:19.831Z,28.76
2022-08-09T12:22:56.115Z,28.57
2022-08-09T12:25:36.582Z,28.61
2022-08-09T12:28:58.496Z,28.87
2022-08-09T12:31:11.240Z,28.99
2022-08-09T12:37:21.888Z,28.81
2022-08-09T12:40:28.684Z,28.67
2022-08-09T12:45:59.761Z,28.80
2022-08-09T12:48:33.455Z,28.55
2022-08-09T12:51:07.442Z,28.57
2022-08-09T12:53:44.642Z,28.81
2022-08-09T12:56:44.101Z,28.76
2022-08-09T12:59:57.626Z,28.62
2022-08-09T13:02:15.228Z,28.55
2022-08-09T13:04:50.890Z,28.56
2022-08-09T13:10:04.879Z,28.74
2022-08-09T13:12:39.701Z,28.58
2022-08-09T13:15:18.354Z,28.59
2022-08-09T13:18:05.761Z,28.81
2022-08-09T13:20:50.110Z,29.07
2022-08-09T13:26:49.783Z,29.19
2022-08-09T13:30:02.419Z,29.34
2022-08-09T13:32:45.884Z,29.29
2022-08-09T13:35:19.051Z,29.35
2022-08-09T13:38:05.730Z,29.22
2022-08-09T13:41:50.897Z,29.22
2022-08-09T13:43:39.810Z,29.19
2022-08-09T13:47:16.477Z,29.17
2022-08-09T13:49:18.137Z,28.91
2022-08-09T13:52:00.554Z,28.94
2022-08-09T13:54:30.924Z,28.91
2022-08-09T13:57:00.457Z,28.79
2022-08-09T13:59:42.094Z,28.80
2022-08-09T14:02:09.952Z,28.56
2022-08-09T14:04:40.221Z,28.46
2022-08-09T14:07:26.362Z,28.53
2022-08-09T14:10:17.162Z,28.49
2022-08-09T14:12:55.997Z,28.21
2022-08-09T14:16:10.604Z,28.06
2022-08-09T14:18:29.905Z,27.83
2022-08-09T14:21:08.099Z,27.61
2022-08-09T14:23:40.184Z,27.20
2022-08-09T14:26:34.129Z,27.23
2022-08-09T14:30:04.408Z,27.35
2022-08-09T14:31:57.558Z,27.40
2022-08-09T14:34:31.609Z,27.28
2022-08-09T14:37:07.816Z,27.19
2022-08-09T14:39:46.575Z,27.22
2022-08-09T14:42:30.122Z,27.20
2022-08-09T14:46:40.176Z,27.12
2022-08-09T14:47:59.767Z,27.38
2022-08-09T14:50:34.965Z,27.42
2022-08-09T14:53:11.401Z,27.52
2022-08-09T14:55:48.030Z,27.43
2022-08-09T14:58:29.557Z,27.24
2022-08-09T15:00:57.713Z,27.13
2022-08-09T15:03:28.113Z,27.22
2022-08-09T15:06:07.474Z,27.33
2022-08-09T15:08:56.948Z,27.46
2022-08-09T15:11:26.338Z,27.29
2022-08-09T15:14:01.493Z,27.10
2022-08-09T15:16:34.586Z,27.17
2022-08-09T15:19:16.118Z,27.08
2022-08-09T15:21:54.798Z,27.07
2022-08-09T15:24:27.357Z,27.10
2022-08-09T15:26:53.956Z,27.01
2022-08-09T15:30:55.983Z,26.95
2022-08-09T15:32:28.987Z,27.04
2022-08-09T15:34:54.398Z,26.89
2022-08-09T15:37:37.384Z,26.80
2022-08-09T15:40:13.052Z,26.62
2022-08-09T15:42:42.624Z,26.64
2022-08-09T15:45:11.195Z,26.62
2022-08-09T15:47:51.959Z,26.52
2022-08-09T15:50:28.892Z,26.49
2022-08-09T15:53:06.769Z,26.43
2022-08-09T15:55:34.602Z,26.47
2022-08-09T15:58:24.129Z,26.39
2022-08-09T16:00:53.681Z,26.33
2022-08-09T16:03:29.580Z,26.38
2022-08-09T16:06:06.116Z,26.37
2022-08-09T16:08:33.459Z,26.34
2022-08-09T16:11:02.364Z,26.32
2022-08-09T16:14:03.533Z,26.27
2022-08-09T16:16:26.185Z,26.19
2022-08-09T16:18:55.030Z,26.08
2022-08-09T16:21:25.489Z,26.07
2022-08-09T16:24:29.744Z,25.98
2022-08-09T16:26:56.796Z,25.95
2022-08-09T16:29:37.564Z,25.91
2022-08-09T16:32:33.852Z,25.90
2022-08-09T16:34:58.538Z,25.85
2022-08-09T16:37:54.941Z,25.76
2022-08-09T16:40:29.692Z,25.73
2022-08-09T16:43:06.053Z,25.69
2022-08-09T16:45:32.739Z,25.67
2022-08-09T16:48:39.893Z,25.65
2022-08-09T16:50:49.749Z,25.59
2022-08-09T16:53:26.744Z,25.54
2022-08-09T16:56:03.590Z,25.54
2022-08-09T16:58:36.726Z,25.50
2022-08-09T17:01:04.433Z,25.45
2022-08-09T17:03:31.327Z,25.46
2022-08-09T17:06:08.007Z,25.44
2022-08-09T17:08:43.679Z,25.45
2022-08-09T17:11:33.037Z,25.38
2022-08-09T17:14:08.113Z,25.26
2022-08-09T17:16:42.788Z,25.20
2022-08-09T17:19:10.525Z,25.10
2022-08-09T17:21:38.276Z,25.04
2022-08-09T17:24:27.251Z,24.97
2022-08-09T17:26:53.375Z,24.89
2022-08-09T17:29:20.956Z,24.80
2022-08-09T17:31:49.231Z,24.70
2022-08-09T17:34:20.195Z,24.61
2022-08-09T17:37:02.816Z,24.50
2022-08-09T17:39:53.048Z,24.48
2022-08-09T17:42:41.946Z,24.40
2022-08-09T17:45:06.529Z,24.33
2022-08-09T17:47:49.675Z,24.27
2022-08-09T17:50:25.161Z,24.22
2022-08-09T17:53:19.643Z,24.15
2022-08-09T17:55:52.989Z,24.10
2022-08-09T17:58:26.899Z,24.01
2022-08-09T18:00:54.864Z,23.95
2022-08-09T18:03:23.862Z,23.95
2022-08-09T18:05:53.054Z,23.89
2022-08-09T18:08:22.236Z,23.83
2022-08-09T18:11:01.886Z,23.82
2022-08-09T18:13:39.999Z,23.81
2022-08-09T18:16:29.539Z,23.73
2022-08-09T18:19:03.638Z,23.72
2022-08-09T18:21:40.897Z,23.70
2022-08-09T18:24:14.510Z,23.64
2022-08-09T18:26:47.039Z,23.57
2022-08-09T18:30:42.606Z,23.56
2022-08-09T18:32:05.138Z,23.48
2022-08-09T18:34:35.065Z,23.42
2022-08-09T18:37:06.880Z,23.40
2022-08-09T18:39:39.592Z,23.37
2022-08-09T18:42:09.865Z,23.35
2022-08-09T18:44:38.928Z,23.29
2022-08-09T18:47:15.134Z,23.23
2022-08-09T18:49:47.044Z,23.17
2022-08-09T18:52:16.011Z,23.10
2022-08-09T18:54:52.844Z,23.03
2022-08-09T18:57:22.210Z,22.97
2022-08-09T18:59:55.112Z,22.93
2022-08-09T19:02:30.721Z,22.89
2022-08-09T19:05:20.049Z,22.86
2022-08-09T19:08:04.473Z,22.74
2022-08-09T19:10:39.468Z,22.67
2022-08-09T19:13:20.708Z,22.63
2022-08-09T19:15:55.563Z,22.57
2022-08-09T19:18:34.043Z,22.52
2022-08-09T19:21:09.674Z,22.47
2022-08-09T19:24:35.581Z,22.40
2022-08-09T19:26:31.486Z,22.34
2022-08-09T19:29:09.754Z,22.27
2022-08-09T19:31:46.559Z,22.23
2022-08-09T19:34:21.518Z,22.17
2022-08-09T19:36:50.830Z,22.12
2022-08-09T19:39:17.376Z,22.08
2022-08-09T19:41:48.723Z,22.06
2022-08-09T19:44:20.438Z,21.98
2022-08-09T19:46:50.458Z,21.93
2022-08-09T19:50:10.332Z,21.87
2022-08-09T19:52:07.549Z,21.80
2022-08-09T19:54:34.059Z,21.76
2022-08-09T19:57:00.578Z,21.70
2022-08-09T19:59:57.862Z,21.63
2022-08-09T20:04:08.157Z,21.56
2022-08-09T20:05:09.927Z,21.50
2022-08-09T20:07:59.398Z,21.48
2022-08-09T20:10:34.111Z,21.42
2022-08-09T20:13:02.244Z,21.34
2022-08-09T20:16:34.296Z,21.29
2022-08-09T20:18:18.020Z,21.22
2022-08-09T20:20:46.936Z,21.15
2022-08-09T20:23:13.453Z,21.12
2022-08-09T20:25:52.488Z,21.08
2022-08-09T20:28:31.981Z,21.03
2022-08-09T20:31:04.628Z,20.99
2022-08-09T20:33:41.079Z,20.94
2022-08-09T20:36:10.561Z,20.86
2022-08-09T20:41:31.990Z,20.78
2022-08-09T20:44:02.263Z,20.69
2022-08-09T20:46:33.940Z,20.65
2022-08-09T20:49:10.317Z,20.60
2022-08-09T20:51:41.690Z,20.57
2022-08-09T20:54:16.547Z,20.52
2022-08-09T20:56:43.682Z,20.47
2022-08-09T20:59:17.332Z,20.41
2022-08-09T21:01:49.752Z,20.36
2022-08-09T21:05:51.204Z,20.33
2022-08-09T21:07:11.467Z,20.29
2022-08-09T21:09:45.918Z,20.24
2022-08-09T21:15:12.593Z,20.10
2022-08-09T21:18:23.187Z,20.05
2022-08-09T21:24:05.297Z,19.94
2022-08-09T21:26:32.121Z,19.91
2022-08-09T21:28:59.689Z,19.88
2022-08-09T21:31:48.111Z,19.85
2022-08-09T21:34:15.476Z,19.78
2022-08-09T21:36:55.888Z,19.71
2022-08-09T21:39:28.303Z,19.66
2022-08-09T21:42:10.629Z,19.61
2022-08-09T21:44:37.930Z,19.59
2022-08-09T21:47:07.741Z,19.52
2022-08-09T21:49:40.329Z,19.50
2022-08-09T21:52:16.480Z,19.46
2022-08-09T21:54:51.043Z,19.40
2022-08-09T21:57:39.560Z,19.35
2022-08-09T22:00:25.776Z,19.30
2022-08-09T22:02:59.296Z,19.25
2022-08-09T22:05:36.174Z,19.18
2022-08-09T22:08:16.245Z,19.15
2022-08-09T22:11:00.969Z,19.11
2022-08-09T22:13:34.460Z,19.06
2022-08-09T22:16:07.165Z,19.05
2022-08-09T22:18:35.094Z,18.99
2022-08-09T22:21:09.594Z,18.91
2022-08-09T22:23:58.915Z,18.87
2022-08-09T22:26:35.164Z,18.82
2022-08-09T22:29:07.551Z,18.80
2022-08-09T22:31:36.403Z,18.75
2022-08-09T22:34:03.423Z,18.72
2022-08-09T22:36:45.439Z,18.67
2022-08-09T22:39:46.892Z,18.61
2022-08-09T22:42:00.358Z,18.57
2022-08-09T22:44:29.922Z,18.53
2022-08-09T22:48:14.263Z,18.47
2022-08-09T22:49:46.230Z,18.45
2022-08-09T22:52:12.762Z,18.40
2022-08-09T22:54:42.207Z,18.35
2022-08-09T22:57:13.905Z,18.29
2022-08-09T22:59:57.988Z,18.27
2022-08-09T23:02:25.900Z,18.21
2022-08-09T23:04:54.734Z,18.20
2022-08-09T23:08:29.308Z,18.15
2022-08-09T23:10:30.633Z,18.10
2022-08-09T23:12:57.708Z,18.07
2022-08-09T23:15:24.571Z,18.04
2022-08-09T23:17:51.079Z,17.99
2022-08-09T23:20:17.584Z,17.92
2022-08-09T23:22:44.077Z,17.90
2022-08-09T23:25:10.990Z,17.89
2022-08-09T23:28:14.727Z,17.84
2022-08-09T23:30:24.257Z,17.78
2022-08-09T23:32:50.751Z,17.75
2022-08-09T23:35:17.262Z,17.65
2022-08-09T23:37:43.852Z,17.60
2022-08-09T23:40:10.904Z,17.58
2022-08-09T23:42:37.502Z,17.55
2022-08-09T23:45:07.971Z,17.54
2022-08-09T23:47:35.504Z,17.50
2022-08-09T23:50:01.991Z,17.47
2022-08-09T23:52:28.486Z,17.44
2022-08-09T23:54:57.428Z,17.42
2022-08-09T23:57:23.929Z,17.39
